createdAt,value
2022-09-26T00:01:35.452Z,26.38
2022-09-26T00:04:08.044Z,23.90
2022-09-26T00:06:35.156Z,26.50
2022-09-26T00:09:02.294Z,20.45
2022-09-26T00:11:33.318Z,31.75
2022-09-26T00:14:05.264Z,29.75
2022-09-26T00:16:32.865Z,22.40
2022-09-26T00:19:00.240Z,20.92
2022-09-26T00:21:29.423Z,18.33
2022-09-26T00:23:58.596Z,18.75
2022-09-26T00:26:28.474Z,19.50
2022-09-26T00:28:55.707Z,21.98
2022-09-26T00:31:30.404Z,19.50
2022-09-26T00:33:57.786Z,23.05
2022-09-26T00:36:37.033Z,15.98
2022-09-26T00:39:05.304Z,20.23
2022-09-26T00:41:32.187Z,17.83
2022-09-26T00:43:58.969Z,16.73
2022-09-26T00:46:33.092Z,20.58
2022-09-26T00:49:24.951Z,15.57
2022-09-26T00:52:14.826Z,14.73
2022-09-26T00:54:46.874Z,19.05
2022-09-26T00:57:31.751Z,14.55
2022-09-26T01:00:08.480Z,20.88
2022-09-26T01:02:35.833Z,20.00
2022-09-26T01:05:05.705Z,19.77
2022-09-26T01:07:34.340Z,19.17
2022-09-26T01:10:05.649Z,16.40
2022-09-26T01:12:35.549Z,14.27
2022-09-26T01:15:02.673Z,20.30
2022-09-26T01:17:30.271Z,14.25
2022-09-26T01:20:39.219Z,13.70
2022-09-26T01:23:45.191Z,15.23
2022-09-26T01:26:27.516Z,16.52
2022-09-26T01:29:42.214Z,17.20
2022-09-26T01:32:46.191Z,19.75
2022-09-26T01:35:47.175Z,21.08
2022-09-26T01:38:44.714Z,14.88
2022-09-26T01:41:50.854Z,19.90
2022-09-26T01:44:20.849Z,12.50
2022-09-26T01:47:12.909Z,14.25
2022-09-26T01:50:02.446Z,12.35
2022-09-26T01:52:46.836Z,14.00
2022-09-26T01:55:25.447Z,15.25
2022-09-26T01:58:18.858Z,16.15
2022-09-26T02:00:49.202Z,12.00
2022-09-26T02:03:20.944Z,12.00
2022-09-26T02:06:10.727Z,16.08
2022-09-26T02:08:48.227Z,11.38
2022-09-26T02:11:18.496Z,14.52
2022-09-26T02:14:09.503Z,13.35
2022-09-26T02:16:42.391Z,9.27
2022-09-26T02:19:22.352Z,12.85
2022-09-26T02:21:49.744Z,10.32
2022-09-26T02:24:16.802Z,13.35
2022-09-26T02:26:44.032Z,14.18
2022-09-26T02:29:13.959Z,12.02
2022-09-26T02:31:49.628Z,10.77
2022-09-26T02:34:16.647Z,12.85
2022-09-26T02:36:44.550Z,16.00
2022-09-26T02:39:12.137Z,11.02
2022-09-26T02:42:09.286Z,16.08
2022-09-26T02:45:15.839Z,13.35
2022-09-26T02:48:08.219Z,13.43
2022-09-26T02:50:38.062Z,13.23
2022-09-26T02:54:00.992Z,11.45
2022-09-26T02:56:50.836Z,15.70
2022-09-26T02:59:31.420Z,14.65
2022-09-26T03:02:30.605Z,12.13
2022-09-26T03:05:11.732Z,12.32
2022-09-26T03:07:51.977Z,13.38
2022-09-26T03:10:20.329Z,11.77
2022-09-26T03:12:48.119Z,13.27
2022-09-26T03:15:17.644Z,15.27
2022-09-26T03:17:51.552Z,10.82
2022-09-26T03:20:22.679Z,9.77
2022-09-26T03:22:50.815Z,14.68
2022-09-26T03:25:23.970Z,12.55
2022-09-26T03:30:21.167Z,10.05
2022-09-26T03:32:48.855Z,12.50
2022-09-26T03:35:16.531Z,11.15
2022-09-26T03:37:43.550Z,9.18
2022-09-26T03:40:13.009Z,11.63
2022-09-26T03:42:40.444Z,16.55
2022-09-26T03:45:10.602Z,15.23
2022-09-26T03:47:42.021Z,19.65
2022-09-26T03:50:09.767Z,14.32
2022-09-26T03:52:36.757Z,11.63
2022-09-26T03:55:05.254Z,16.50
2022-09-26T03:57:32.114Z,14.77
2022-09-26T03:59:59.045Z,13.43
2022-09-26T04:02:26.354Z,11.32
2022-09-26T04:04:53.331Z,11.15
2022-09-26T04:07:20.140Z,14.52
2022-09-26T04:09:46.978Z,11.32
2022-09-26T04:12:13.760Z,10.93
2022-09-26T04:14:41.810Z,14.57
2022-09-26T04:17:08.896Z,8.95
2022-09-26T04:19:35.842Z,13.30
2022-09-26T04:22:02.891Z,10.43
2022-09-26T04:24:29.889Z,9.05
2022-09-26T04:26:57.326Z,10.85
2022-09-26T04:29:24.432Z,9.85
2022-09-26T04:31:52.064Z,11.32
2022-09-26T04:34:24.829Z,11.52
2022-09-26T04:36:53.927Z,8.27
2022-09-26T04:39:20.831Z,10.73
2022-09-26T04:41:47.675Z,12.27
2022-09-26T04:44:15.209Z,11.40
2022-09-26T04:46:42.223Z,9.18
2022-09-26T04:49:09.298Z,15.27
2022-09-26T04:51:37.075Z,15.02
2022-09-26T04:54:04.084Z,12.65
2022-09-26T04:56:31.671Z,11.68
2022-09-26T04:59:02.334Z,10.40
2022-09-26T05:01:29.424Z,11.18
2022-09-26T05:03:58.615Z,11.13
2022-09-26T05:06:25.666Z,13.80
2022-09-26T05:08:52.749Z,13.73
2022-09-26T05:11:21.470Z,11.02
2022-09-26T05:13:53.604Z,10.02
2022-09-26T05:16:21.568Z,13.98
2022-09-26T05:18:52.513Z,16.35
2022-09-26T05:21:19.658Z,16.50
2022-09-26T05:24:04.900Z,13.88
2022-09-26T05:27:00.740Z,13.15
2022-09-26T05:29:27.534Z,16.48
2022-09-26T05:31:55.240Z,14.43
2022-09-26T05:34:25.229Z,14.18
2022-09-26T05:36:53.640Z,11.95
2022-09-26T05:39:42.314Z,14.23
2022-09-26T05:42:09.684Z,14.70
2022-09-26T05:44:36.602Z,17.02
2022-09-26T05:47:03.601Z,15.65
2022-09-26T05:49:30.441Z,10.85
2022-09-26T05:51:57.393Z,22.27
2022-09-26T05:54:24.223Z,10.25
2022-09-26T05:56:51.211Z,13.95
2022-09-26T05:59:19.146Z,11.70
2022-09-26T06:01:47.060Z,13.98
2022-09-26T06:04:14.066Z,14.52
2022-09-26T06:06:44.336Z,12.35
2022-09-26T06:09:11.183Z,12.25
2022-09-26T06:11:38.004Z,16.42
2022-09-26T06:14:04.984Z,18.67
2022-09-26T06:16:32.858Z,16.92
2022-09-26T06:19:01.016Z,16.85
2022-09-26T06:21:27.904Z,17.90
2022-09-26T06:23:54.718Z,17.92
2022-09-26T06:26:25.820Z,19.30
2022-09-26T06:28:58.289Z,16.92
2022-09-26T06:31:26.366Z,17.90
2022-09-26T06:33:54.303Z,15.32
2022-09-26T06:36:23.539Z,19.33
2022-09-26T06:38:51.447Z,20.75
2022-09-26T06:41:18.634Z,18.48
2022-09-26T06:43:47.549Z,20.05
2022-09-26T06:46:16.354Z,25.55
2022-09-26T06:48:43.876Z,24.23
2022-09-26T06:51:13.377Z,18.45
2022-09-26T06:53:40.763Z,17.77
2022-09-26T06:56:08.280Z,17.75
2022-09-26T06:58:35.146Z,20.77
2022-09-26T07:01:02.828Z,22.25
2022-09-26T07:03:30.206Z,16.40
2022-09-26T07:05:57.858Z,16.15
2022-09-26T07:08:50.074Z,20.23
2022-09-26T07:11:35.161Z,12.98
2022-09-26T07:14:02.285Z,16.27
2022-09-26T07:16:30.165Z,15.52
2022-09-26T07:18:58.183Z,16.52
2022-09-26T07:21:25.207Z,16.10
2022-09-26T07:23:58.187Z,15.48
2022-09-26T07:28:54.721Z,15.80
2022-09-26T07:31:25.554Z,13.82
2022-09-26T07:33:52.969Z,10.07
2022-09-26T07:36:21.088Z,14.00
2022-09-26T07:38:49.412Z,16.25
2022-09-26T07:41:17.613Z,15.60
2022-09-26T07:46:50.419Z,12.05
2022-09-26T07:49:35.689Z,12.43
2022-09-26T07:52:02.876Z,11.75
2022-09-26T07:54:29.722Z,14.02
2022-09-26T07:56:56.670Z,12.48
2022-09-26T07:59:23.561Z,12.35
2022-09-26T08:01:54.613Z,12.10
2022-09-26T08:04:21.462Z,12.07
2022-09-26T08:06:50.258Z,9.70
2022-09-26T08:09:17.298Z,14.45
2022-09-26T08:11:45.195Z,12.35
2022-09-26T08:14:12.228Z,9.98
2022-09-26T08:16:41.924Z,11.02
2022-09-26T08:19:12.919Z,9.73
2022-09-26T08:21:39.795Z,10.52
2022-09-26T08:24:06.847Z,10.70
2022-09-26T08:26:34.022Z,9.32
2022-09-26T08:29:02.098Z,8.57
2022-09-26T08:31:29.051Z,8.95
2022-09-26T08:33:55.982Z,11.48
2022-09-26T08:36:22.984Z,10.77
2022-09-26T08:38:50.368Z,12.52
2022-09-26T08:42:02.444Z,7.88
2022-09-26T08:44:56.930Z,9.02
2022-09-26T08:47:50.471Z,11.32
2022-09-26T08:50:32.628Z,8.55
2022-09-26T08:53:14.030Z,10.50
2022-09-26T08:55:44.644Z,10.82
2022-09-26T08:58:28.437Z,6.93
2022-09-26T09:01:17.576Z,12.07
2022-09-26T09:04:02.596Z,9.35
2022-09-26T09:06:29.570Z,8.88
2022-09-26T09:08:57.279Z,6.88
2022-09-26T09:12:08.579Z,12.88
2022-09-26T09:15:23.909Z,7.32
2022-09-26T09:18:13.396Z,11.80
2022-09-26T09:21:27.900Z,8.10
2022-09-26T09:24:41.459Z,7.13
2022-09-26T09:30:40.404Z,7.32
2022-09-26T09:33:22.348Z,6.75
2022-09-26T09:35:55.400Z,9.40
2022-09-26T09:38:35.069Z,8.23
2022-09-26T09:41:39.148Z,7.68
2022-09-26T09:44:36.239Z,7.60
2022-09-26T09:47:13.487Z,5.75
2022-09-26T09:49:42.415Z,6.07
2022-09-26T09:52:20.038Z,4.68
2022-09-26T09:55:16.503Z,7.85
2022-09-26T09:58:17.191Z,13.48
2022-09-26T10:01:00.661Z,10.15
2022-09-26T10:03:55.400Z,4.68
2022-09-26T10:06:44.272Z,7.20
2022-09-26T10:09:46.314Z,6.28
2022-09-26T10:14:56.623Z,6.07
2022-09-26T10:17:24.700Z,8.02
2022-09-26T10:19:51.954Z,7.82
2022-09-26T10:22:42.619Z,6.68
2022-09-26T10:25:20.876Z,8.45
2022-09-26T10:27:53.285Z,5.00
2022-09-26T10:30:20.304Z,3.88
2022-09-26T10:32:56.869Z,3.75
2022-09-26T10:35:41.934Z,7.28
2022-09-26T10:38:24.322Z,4.18
2022-09-26T10:40:59.792Z,5.72
2022-09-26T10:43:28.807Z,5.05
2022-09-26T10:46:04.473Z,7.00
2022-09-26T10:48:48.382Z,7.22
2022-09-26T10:51:27.710Z,7.10
2022-09-26T10:54:14.755Z,5.18
2022-09-26T10:56:47.718Z,5.60
2022-09-26T10:59:17.066Z,7.43
2022-09-26T11:01:49.312Z,3.75
2022-09-26T11:04:51.905Z,4.45
2022-09-26T11:07:25.854Z,7.53
2022-09-26T11:09:58.879Z,5.30
2022-09-26T11:12:29.230Z,5.97
2022-09-26T11:15:00.026Z,6.57
2022-09-26T11:17:52.646Z,4.38
2022-09-26T11:20:53.569Z,7.10
2022-09-26T11:23:37.235Z,5.88
2022-09-26T11:26:26.169Z,6.38
2022-09-26T11:29:46.481Z,7.05
2022-09-26T11:32:18.790Z,7.82
2022-09-26T11:34:46.244Z,5.20
2022-09-26T11:37:38.189Z,8.27
2022-09-26T11:40:44.694Z,6.53
2022-09-26T11:43:45.460Z,5.85
2022-09-26T11:46:27.447Z,5.05
2022-09-26T11:49:34.269Z,4.20
2022-09-26T11:52:38.721Z,7.03
2022-09-26T11:55:20.528Z,6.43
2022-09-26T11:58:14.963Z,5.13
2022-09-26T12:01:02.791Z,6.70
2022-09-26T12:03:40.350Z,4.68
2022-09-26T12:06:13.454Z,3.47
2022-09-26T12:08:49.787Z,4.00
2022-09-26T12:11:42.422Z,6.90
2022-09-26T12:14:57.901Z,7.55
2022-09-26T12:18:01.979Z,3.78
2022-09-26T12:20:41.659Z,2.45
2022-09-26T12:23:58.780Z,3.42
2022-09-26T12:26:58.870Z,5.03
2022-09-26T12:30:02.299Z,7.35
2022-09-26T12:32:52.130Z,5.30
2022-09-26T12:35:22.041Z,2.83
2022-09-26T12:38:07.855Z,5.13
2022-09-26T12:40:37.068Z,4.53
2022-09-26T12:43:40.906Z,2.70
2022-09-26T12:46:39.797Z,6.28
2022-09-26T12:49:48.364Z,6.03
2022-09-26T12:52:35.156Z,2.50
2022-09-26T12:55:36.218Z,8.98
2022-09-26T12:58:25.200Z,5.30
2022-09-26T13:01:29.279Z,4.43
2022-09-26T13:04:41.635Z,4.07
2022-09-26T13:07:40.318Z,2.28
2022-09-26T13:11:01.192Z,9.82
2022-09-26T13:14:13.246Z,4.78
2022-09-26T13:17:19.777Z,2.90
2022-09-26T13:19:51.802Z,4.20
2022-09-26T13:22:48.033Z,4.72
2022-09-26T13:25:23.635Z,6.60
2022-09-26T13:27:58.270Z,4.65
2022-09-26T13:30:35.613Z,3.05
2022-09-26T13:33:23.676Z,3.92
2022-09-26T13:35:56.289Z,3.08
2022-09-26T13:38:37.945Z,4.68
2022-09-26T13:41:32.645Z,5.25
2022-09-26T13:44:28.489Z,11.52
2022-09-26T13:47:50.912Z,6.03
2022-09-26T13:50:50.211Z,2.25
2022-09-26T13:54:08.344Z,3.88
2022-09-26T13:56:36.147Z,5.15
2022-09-26T13:59:34.618Z,4.30
2022-09-26T14:02:28.251Z,1.95
2022-09-26T14:05:20.043Z,4.25
2022-09-26T14:08:11.204Z,4.05
2022-09-26T14:10:41.574Z,3.97
2022-09-26T14:13:32.140Z,4.57
2022-09-26T14:16:05.186Z,2.92
2022-09-26T14:21:57.846Z,4.22
2022-09-26T14:24:41.983Z,2.85
2022-09-26T14:27:11.838Z,6.20
2022-09-26T14:29:38.573Z,3.47
2022-09-26T14:32:42.810Z,3.30
2022-09-26T14:35:38.500Z,3.15
2022-09-26T14:38:15.157Z,3.55
2022-09-26T14:41:01.827Z,3.75
2022-09-26T14:43:31.321Z,4.97
2022-09-26T14:46:06.029Z,2.50
2022-09-26T14:48:41.352Z,5.15
2022-09-26T14:51:11.312Z,4.07
2022-09-26T14:53:50.322Z,3.05
2022-09-26T14:56:27.196Z,6.90
2022-09-26T14:59:30.449Z,7.00
2022-09-26T15:02:40.057Z,3.65
2022-09-26T15:05:11.241Z,4.53
2022-09-26T15:07:52.511Z,5.63
2022-09-26T15:10:35.489Z,8.60
2022-09-26T15:16:32.468Z,2.65
2022-09-26T15:19:20.890Z,4.28
2022-09-26T15:21:59.430Z,5.78
2022-09-26T15:24:33.461Z,1.88
2022-09-26T15:27:09.479Z,4.10
2022-09-26T15:29:46.145Z,6.03
2022-09-26T15:32:19.316Z,4.85
2022-09-26T15:34:47.331Z,5.68
2022-09-26T15:37:25.432Z,4.07
2022-09-26T15:39:52.565Z,6.90
2022-09-26T15:42:47.409Z,4.85
2022-09-26T15:45:33.036Z,3.50
2022-09-26T15:48:05.827Z,4.78
2022-09-26T15:53:39.575Z,6.93
2022-09-26T15:56:11.011Z,5.05
2022-09-26T15:58:49.207Z,5.50
2022-09-26T16:01:26.269Z,5.13
2022-09-26T16:04:14.048Z,5.82
2022-09-26T16:07:02.033Z,3.97
2022-09-26T16:09:40.026Z,10.45
2022-09-26T16:12:16.086Z,3.20
2022-09-26T16:14:49.669Z,3.88
2022-09-26T16:17:26.540Z,6.50
2022-09-26T16:20:01.939Z,5.45
2022-09-26T16:22:50.974Z,11.48
2022-09-26T16:25:20.923Z,7.18
2022-09-26T16:27:53.102Z,4.03
2022-09-26T16:30:28.682Z,6.35
2022-09-26T16:33:10.151Z,4.22
2022-09-26T16:35:44.744Z,7.53
2022-09-26T16:38:35.740Z,4.43
2022-09-26T16:44:42.211Z,14.60
2022-09-26T16:47:44.102Z,4.60
2022-09-26T16:50:33.944Z,5.45
2022-09-26T16:53:06.471Z,3.08
2022-09-26T16:55:36.328Z,2.65
2022-09-26T16:58:05.316Z,3.35
2022-09-26T17:00:53.115Z,6.57
2022-09-26T17:03:30.594Z,6.38
2022-09-26T17:06:00.207Z,4.35
2022-09-26T17:08:28.608Z,3.90
2022-09-26T17:11:00.399Z,4.63
2022-09-26T17:13:30.675Z,5.75
2022-09-26T17:16:00.705Z,3.42
2022-09-26T17:18:32.267Z,4.05
2022-09-26T17:20:59.525Z,5.05
2022-09-26T17:23:40.488Z,4.22
2022-09-26T17:26:15.881Z,2.97
2022-09-26T17:28:43.527Z,6.47
2022-09-26T17:31:19.668Z,3.83
2022-09-26T17:33:49.697Z,3.90
2022-09-26T17:36:28.048Z,4.78
2022-09-26T17:38:59.107Z,4.53
2022-09-26T17:41:28.025Z,5.88
2022-09-26T17:43:59.929Z,3.95
2022-09-26T17:46:28.015Z,3.08
2022-09-26T17:48:56.025Z,5.55
2022-09-26T17:51:23.881Z,2.85
2022-09-26T17:53:52.549Z,2.95
2022-09-26T17:56:20.789Z,4.78
2022-09-26T17:58:49.166Z,3.30
2022-09-26T18:01:33.607Z,4.38
2022-09-26T18:04:06.478Z,3.13
2022-09-26T18:06:33.619Z,9.27
2022-09-26T18:09:07.726Z,4.70
2022-09-26T18:11:37.899Z,4.00
2022-09-26T18:14:06.817Z,6.30
2022-09-26T18:16:33.785Z,4.55
2022-09-26T18:19:06.049Z,6.50
2022-09-26T18:21:35.082Z,5.13
2022-09-26T18:24:06.730Z,3.95
2022-09-26T18:26:47.153Z,4.10
2022-09-26T18:29:23.049Z,5.20
2022-09-26T18:31:50.049Z,4.32
2022-09-26T18:34:19.769Z,5.40
2022-09-26T18:36:50.272Z,7.70
2022-09-26T18:39:17.236Z,4.82
2022-09-26T18:41:45.197Z,3.55
2022-09-26T18:44:16.825Z,3.72
2022-09-26T18:46:47.194Z,5.43
2022-09-26T18:49:15.083Z,4.20
2022-09-26T18:51:42.379Z,2.63
2022-09-26T18:54:17.068Z,7.13
2022-09-26T18:57:03.135Z,5.95
2022-09-26T18:59:31.020Z,7.05
2022-09-26T19:02:01.236Z,5.47
2022-09-26T19:04:30.676Z,6.90
2022-09-26T19:07:05.818Z,3.85
2022-09-26T19:09:34.918Z,4.13
2022-09-26T19:12:03.252Z,3.15
2022-09-26T19:14:31.931Z,5.47
2022-09-26T19:16:59.094Z,7.70
2022-09-26T19:19:28.473Z,8.48
2022-09-26T19:21:59.584Z,4.82
2022-09-26T19:24:40.197Z,4.45
2022-09-26T19:27:18.238Z,3.47
2022-09-26T19:29:52.553Z,3.35
2022-09-26T19:32:24.654Z,5.28
2022-09-26T19:34:59.935Z,3.60
2022-09-26T19:37:27.700Z,3.45
2022-09-26T19:39:56.352Z,3.38
2022-09-26T19:42:23.954Z,5.95
2022-09-26T19:44:51.334Z,4.72
2022-09-26T19:47:21.851Z,3.63
2022-09-26T19:49:51.188Z,6.03
2022-09-26T19:52:20.741Z,6.43
2022-09-26T19:54:48.082Z,4.93
2022-09-26T19:57:20.848Z,3.47
2022-09-26T19:59:48.636Z,3.80
2022-09-26T20:02:20.726Z,5.93
2022-09-26T20:04:48.199Z,4.90
2022-09-26T20:07:19.172Z,3.88
2022-09-26T20:09:47.190Z,3.33
2022-09-26T20:12:14.723Z,5.88
2022-09-26T20:14:41.674Z,5.65
2022-09-26T20:17:26.793Z,4.30
2022-09-26T20:19:58.550Z,4.45
2022-09-26T20:22:26.153Z,3.35
2022-09-26T20:24:57.290Z,4.00
2022-09-26T20:27:29.474Z,3.83
2022-09-26T20:30:15.807Z,5.07
2022-09-26T20:32:43.165Z,2.78
2022-09-26T20:35:16.324Z,2.72
2022-09-26T20:37:44.275Z,4.60
2022-09-26T20:40:21.114Z,2.38
2022-09-26T20:42:53.540Z,4.35
2022-09-26T20:45:29.823Z,3.03
2022-09-26T20:47:59.275Z,2.47
2022-09-26T20:50:34.162Z,2.58
2022-09-26T20:53:01.897Z,3.60
2022-09-26T20:55:32.434Z,3.88
2022-09-26T20:57:59.800Z,5.03
2022-09-26T21:00:26.640Z,3.90
2022-09-26T21:02:56.107Z,3.22
2022-09-26T21:05:27.294Z,2.08
2022-09-26T21:07:56.211Z,2.63
2022-09-26T21:10:27.161Z,3.55
2022-09-26T21:12:54.922Z,3.17
2022-09-26T21:15:23.699Z,1.55
2022-09-26T21:17:51.945Z,4.13
2022-09-26T21:20:33.827Z,2.70
2022-09-26T21:23:02.006Z,3.78
2022-09-26T21:25:31.653Z,3.92
2022-09-26T21:28:28.342Z,7.45
2022-09-26T21:31:00.346Z,1.58
2022-09-26T21:33:27.542Z,1.73
2022-09-26T21:35:54.836Z,3.75
2022-09-26T21:38:22.375Z,2.97
2022-09-26T21:40:57.173Z,2.03
2022-09-26T21:43:27.575Z,2.17
2022-09-26T21:45:54.589Z,2.88
2022-09-26T21:48:21.994Z,1.70
2022-09-26T21:50:58.100Z,2.70
2022-09-26T21:53:36.196Z,2.67
2022-09-26T21:56:15.687Z,1.00
2022-09-26T21:58:44.101Z,1.48
2022-09-26T22:01:11.883Z,2.90
2022-09-26T22:03:38.770Z,1.50
2022-09-26T22:06:10.006Z,1.55
2022-09-26T22:08:38.104Z,1.23
2022-09-26T22:11:06.237Z,1.80
2022-09-26T22:13:36.325Z,0.85
2022-09-26T22:16:07.687Z,2.03
2022-09-26T22:18:36.840Z,1.48
2022-09-26T22:21:04.677Z,0.95
2022-09-26T22:23:33.461Z,1.42
2022-09-26T22:26:00.559Z,0.80
2022-09-26T22:28:28.487Z,1.08
2022-09-26T22:30:55.821Z,0.98
2022-09-26T22:33:23.487Z,1.60
2022-09-26T22:35:51.090Z,1.55
2022-09-26T22:38:18.478Z,1.52
2022-09-26T22:40:46.436Z,2.20
2022-09-26T22:43:13.339Z,1.23
2022-09-26T22:45:40.370Z,1.48
2022-09-26T22:48:07.333Z,2.28
2022-09-26T22:50:34.547Z,1.27
2022-09-26T22:53:01.416Z,6.82
2022-09-26T22:55:28.387Z,0.90
2022-09-26T22:57:55.279Z,3.60
2022-09-26T23:00:22.178Z,1.85
2022-09-26T23:02:49.106Z,2.70
2022-09-26T23:05:16.070Z,1.25
2022-09-26T23:07:43.131Z,2.00
2022-09-26T23:10:10.443Z,1.35
2022-09-26T23:12:40.585Z,1.27
2022-09-26T23:15:08.646Z,1.45
2022-09-26T23:17:35.675Z,2.40
2022-09-26T23:20:02.728Z,1.77
2022-09-26T23:22:29.683Z,1.83
2022-09-26T23:24:56.715Z,1.42
2022-09-26T23:27:24.888Z,2.08
2022-09-26T23:29:51.952Z,1.92
2022-09-26T23:32:19.027Z,1.60
2022-09-26T23:34:46.032Z,2.65
2022-09-26T23:37:13.058Z,1.05
2022-09-26T23:39:39.939Z,1.73
2022-09-26T23:42:06.949Z,1.73
2022-09-26T23:44:34.890Z,3.58
2022-09-26T23:47:04.888Z,1.50
2022-09-26T23:49:32.016Z,1.63
2022-09-26T23:51:58.993Z,1.05
2022-09-26T23:54:25.857Z,2.33
2022-09-26T23:56:52.723Z,2.30
2022-09-26T23:59:19.579Z,1.33
